Time;durP1;ratioP1;P1;durP2;ratioP2;P2;SDS_P1;SDS_P2;PMS_P1;PMS_P2;Temp;Humidity;BMP_temperature;BMP_pressure;BME280_temperature;BME280_humidity;BME280_pressure;Samples;Min_cycle;Max_cycle;Signal;HPM_P1;HPM_P2
2023/12/16 00:01:07;;;;;;;91.88;87.45;;;8.20;85.30;;;;;;12603122;28;20337;-71
2023/12/16 00:07:10;;;;;;;95.75;91.18;;;8.20;85.70;;;;;;12611121;28;20036;-72
2023/12/16 00:13:12;;;;;;;88.50;84.40;;;8.10;85.80;;;;;;12612410;28;20031;-72
2023/12/16 00:19:14;;;;;;;86.03;82.10;;;8.10;85.90;;;;;;12612104;28;20330;-71
2023/12/16 00:25:22;;;;;;;93.40;88.88;;;7.90;85.50;;;;;;12593687;28;20048;-72
2023/12/16 00:31:24;;;;;;;94.18;89.50;;;7.80;85.20;;;;;;12593530;28;20040;-72
2023/12/16 00:37:26;;;;;;;82.93;79.03;;;7.70;85.10;;;;;;12611267;28;20032;-71
2023/12/16 00:43:31;;;;;;;71.47;67.90;;;7.60;85.10;;;;;;12610972;28;20032;-72
2023/12/16 00:49:33;;;;;;;75.55;71.30;;;7.60;84.90;;;;;;12593010;28;20032;-72
2023/12/16 00:55:40;;;;;;;111.80;106.68;;;7.60;84.90;;;;;;12576674;28;20044;-72
2023/12/16 01:02:05;;;;;;;67.38;64.20;;;7.60;84.70;;;;;;12610220;28;20024;-72
2023/12/16 01:08:09;;;;;;;60.25;57.33;;;7.40;84.50;;;;;;12609858;28;20024;-72
2023/12/16 01:14:28;;;;;;;45.35;43.00;;;7.20;84.70;;;;;;12608551;28;20036;-72
2023/12/16 01:20:30;;;;;;;60.33;57.35;;;7.20;84.60;;;;;;12591373;28;20055;-72
2023/12/16 01:26:32;;;;;;;72.15;68.63;;;7.20;84.30;;;;;;12608894;28;20044;-72
2023/12/16 01:32:33;;;;;;;56.83;53.92;;;7.20;84.30;;;;;;12608810;28;20037;-72
2023/12/16 01:38:35;;;;;;;61.83;58.88;;;7.20;84.40;;;;;;12608433;28;20040;-72
2023/12/16 01:44:38;;;;;;;64.38;61.22;;;7.20;84.40;;;;;;12608106;28;20036;-72
2023/12/16 01:50:42;;;;;;;59.40;56.17;;;7.20;84.90;;;;;;12590276;28;20021;-71
2023/12/16 01:56:48;;;;;;;79.22;75.28;;;7.20;84.70;;;;;;12589658;28;20040;-72
2023/12/16 02:02:50;;;;;;;44.85;42.20;;;7.20;85.00;;;;;;12589412;28;20032;-72
2023/12/16 02:08:52;;;;;;;63.85;60.90;;;7.20;85.70;;;;;;12606863;28;20033;-72
2023/12/16 02:14:54;;;;;;;50.60;48.00;;;7.10;85.90;;;;;;12606632;28;20035;-72
2023/12/16 02:20:55;;;;;;;61.40;58.35;;;7.00;86.20;;;;;;12606331;28;20036;-71
2023/12/16 02:26:57;;;;;;;54.83;52.28;;;7.00;86.20;;;;;;12605842;28;20040;-72
2023/12/16 02:32:59;;;;;;;41.42;39.08;;;7.00;85.80;;;;;;12588150;28;20035;-72
2023/12/16 02:39:00;;;;;;;40.22;38.28;;;7.00;85.80;;;;;;12605453;28;20031;-72
2023/12/16 02:45:02;;;;;;;39.40;37.25;;;6.90;85.60;;;;;;12587326;28;20028;-72
2023/12/16 02:51:03;;;;;;;38.72;36.65;;;6.90;85.40;;;;;;12587740;28;20036;-72
2023/12/16 02:57:05;;;;;;;40.08;37.88;;;6.90;85.30;;;;;;12604729;28;20044;-72
2023/12/16 03:03:07;;;;;;;38.55;36.65;;;6.90;85.10;;;;;;12604601;28;20039;-72
2023/12/16 03:09:09;;;;;;;24.33;22.60;;;6.70;85.00;;;;;;12586599;28;20032;-72
2023/12/16 03:15:10;;;;;;;29.05;27.42;;;6.60;84.70;;;;;;12604242;28;20032;-72
2023/12/16 03:21:12;;;;;;;24.17;22.45;;;6.70;84.60;;;;;;12604063;28;20032;-72
2023/12/16 03:27:13;;;;;;;22.65;21.00;;;6.70;84.40;;;;;;12586070;28;20040;-72
2023/12/16 03:33:15;;;;;;;25.40;23.67;;;6.50;84.30;;;;;;12585991;28;20325;-72
2023/12/16 03:39:16;;;;;;;21.55;20.13;;;6.50;84.30;;;;;;12608435;28;20033;-72
2023/12/16 03:45:18;;;;;;;18.33;16.92;;;6.50;84.60;;;;;;12595834;28;20051;-72
2023/12/16 03:51:21;;;;;;;27.35;25.65;;;6.50;84.50;;;;;;12613566;28;20029;-72
2023/12/16 03:57:22;;;;;;;20.83;19.17;;;6.50;84.30;;;;;;12595359;28;20036;-72
2023/12/16 04:03:24;;;;;;;25.83;24.23;;;6.20;84.50;;;;;;12612868;28;20425;-72
2023/12/16 04:09:29;;;;;;;28.77;26.95;;;6.20;84.50;;;;;;12612701;28;20028;-72
2023/12/16 04:15:30;;;;;;;20.67;19.38;;;6.20;84.40;;;;;;12612432;28;20345;-72
2023/12/16 04:21:32;;;;;;;23.63;22.15;;;6.20;84.30;;;;;;12594305;28;20029;-72
2023/12/16 04:27:33;;;;;;;22.77;21.20;;;6.20;84.10;;;;;;12611701;28;20032;-73
2023/12/16 04:33:35;;;;;;;34.60;32.63;;;6.20;84.40;;;;;;12593575;28;20044;-73
2023/12/16 04:39:38;;;;;;;17.63;16.02;;;6.20;84.30;;;;;;12611243;28;20024;-73
2023/12/16 04:45:41;;;;;;;18.52;17.15;;;6.20;84.20;;;;;;12611588;28;20352;-73
2023/12/16 04:51:45;;;;;;;19.67;18.42;;;6.20;84.20;;;;;;12610635;28;20036;-73
2023/12/16 04:57:47;;;;;;;15.40;14.25;;;6.10;84.10;;;;;;12610392;28;20036;-73
2023/12/16 05:03:50;;;;;;;22.30;20.88;;;5.90;84.00;;;;;;12610258;28;20029;-73
2023/12/16 05:10:24;;;;;;;11.13;9.43;;;6.00;84.00;;;;;;12609933;28;20029;-73
2023/12/16 05:16:26;;;;;;;25.13;23.42;;;6.00;84.50;;;;;;12609612;28;20028;-73
2023/12/16 05:22:33;;;;;;;24.17;22.48;;;6.10;84.80;;;;;;12609556;28;20028;-73
2023/12/16 05:29:06;;;;;;;19.48;18.05;;;6.10;84.60;;;;;;12609083;28;20043;-73
2023/12/16 05:35:08;;;;;;;15.02;13.93;;;6.00;84.30;;;;;;12608822;28;20040;-73
2023/12/16 05:41:13;;;;;;;17.15;15.63;;;5.90;84.30;;;;;;12608494;28;20028;-72
2023/12/16 05:47:15;;;;;;;22.90;21.67;;;5.80;84.10;;;;;;12590279;28;20322;-73
2023/12/16 05:53:16;;;;;;;27.70;26.02;;;5.80;83.90;;;;;;12607882;28;20035;-72
2023/12/16 05:59:18;;;;;;;30.73;28.88;;;5.70;83.80;;;;;;12607512;28;20445;-72
2023/12/16 06:05:19;;;;;;;34.17;32.25;;;5.60;83.60;;;;;;12606651;28;20456;-72
2023/12/16 06:11:22;;;;;;;24.77;23.20;;;5.40;83.90;;;;;;12589183;28;20039;-73
2023/12/16 06:17:24;;;;;;;39.10;37.10;;;5.40;83.90;;;;;;12606627;28;20031;-73
2023/12/16 06:23:26;;;;;;;27.80;26.25;;;5.40;83.70;;;;;;12606161;28;20033;-72
2023/12/16 06:29:28;;;;;;;33.22;31.35;;;5.50;83.70;;;;;;12605938;28;20037;-72
2023/12/16 06:35:29;;;;;;;28.70;26.95;;;5.30;83.60;;;;;;12588017;28;20349;-73
2023/12/16 06:41:31;;;;;;;36.78;34.78;;;5.30;83.70;;;;;;12587753;28;20049;-73
2023/12/16 06:47:33;;;;;;;51.55;48.80;;;5.30;83.60;;;;;;12587442;28;20460;-73
2023/12/16 06:53:36;;;;;;;34.17;32.13;;;5.10;83.70;;;;;;12604960;28;20045;-73
2023/12/16 06:59:37;;;;;;;52.70;49.85;;;5.20;83.80;;;;;;12611335;22;20044;-73
2023/12/16 07:05:39;;;;;;;50.53;47.38;;;5.30;84.10;;;;;;12570607;28;20044;-72
2023/12/16 07:11:40;;;;;;;41.13;38.58;;;5.20;83.90;;;;;;12586155;28;20024;-73
2023/12/16 07:18:09;;;;;;;38.60;36.08;;;5.10;84.30;;;;;;12603955;28;20032;-73
2023/12/16 07:24:11;;;;;;;45.83;43.25;;;5.20;84.10;;;;;;12604736;28;20024;-72
2023/12/16 07:30:12;;;;;;;51.22;48.45;;;5.40;84.10;;;;;;12585969;28;20044;-72
2023/12/16 07:36:15;;;;;;;52.90;50.15;;;5.40;84.40;;;;;;12604438;28;20029;-72
2023/12/16 07:42:17;;;;;;;40.60;38.13;;;5.50;84.50;;;;;;12604234;28;20024;-73
2023/12/16 07:48:18;;;;;;;30.58;28.52;;;5.50;84.60;;;;;;12603433;28;20028;-72
2023/12/16 07:54:21;;;;;;;29.00;27.27;;;5.50;85.10;;;;;;12603346;28;20028;-72
2023/12/16 08:00:23;;;;;;;31.98;30.00;;;5.50;85.50;;;;;;12603203;28;20348;-73
2023/12/16 08:06:25;;;;;;;30.70;28.75;;;5.50;85.90;;;;;;12602987;28;20047;-73
2023/12/16 08:12:28;;;;;;;40.55;38.28;;;5.50;86.20;;;;;;12585074;28;20024;-73
2023/12/16 08:18:31;;;;;;;42.47;39.78;;;5.60;86.10;;;;;;12602737;28;20353;-73
2023/12/16 08:24:33;;;;;;;46.50;43.75;;;5.70;86.20;;;;;;12604875;28;20035;-72
2023/12/16 08:30:35;;;;;;;25.50;23.80;;;5.70;86.30;;;;;;12594065;28;20338;-72
2023/12/16 08:36:43;;;;;;;32.97;30.92;;;5.70;86.40;;;;;;12611430;28;20043;-73
2023/12/16 08:42:52;;;;;;;17.58;16.33;;;5.80;86.40;;;;;;12611243;28;20028;-72
2023/12/16 08:48:55;;;;;;;22.38;20.52;;;5.80;86.40;;;;;;12610804;28;20035;-73
2023/12/16 08:54:59;;;;;;;22.60;20.83;;;5.90;86.40;;;;;;12610453;28;20040;-72
2023/12/16 09:01:02;;;;;;;24.70;23.17;;;5.80;86.20;;;;;;12592846;28;20044;-72
2023/12/16 09:07:04;;;;;;;31.90;29.80;;;5.80;86.60;;;;;;12609722;28;20040;-72
2023/12/16 09:13:06;;;;;;;32.42;30.45;;;5.90;86.80;;;;;;12591908;28;20035;-72
2023/12/16 09:19:08;;;;;;;41.33;39.17;;;5.90;86.70;;;;;;12609625;28;20032;-72
2023/12/16 09:25:10;;;;;;;30.02;27.90;;;6.00;86.90;;;;;;12591598;28;20036;-72
2023/12/16 09:31:12;;;;;;;53.67;50.75;;;6.10;86.70;;;;;;12591075;28;20028;-72
2023/12/16 09:37:16;;;;;;;36.80;34.72;;;6.10;86.60;;;;;;12590061;28;20028;-72
2023/12/16 09:43:18;;;;;;;39.03;37.05;;;6.20;86.90;;;;;;12608695;28;20033;-72
2023/12/16 09:49:24;;;;;;;45.85;43.25;;;6.20;87.00;;;;;;12607978;28;20033;-73
2023/12/16 09:55:29;;;;;;;88.93;84.60;;;6.30;86.90;;;;;;12607699;28;20032;-72
2023/12/16 10:01:32;;;;;;;53.40;50.83;;;6.40;86.60;;;;;;12607510;28;20032;-72
2023/12/16 10:07:35;;;;;;;49.25;46.88;;;6.50;86.60;;;;;;12607027;28;20353;-72
2023/12/16 10:13:56;;;;;;;91.13;86.75;;;6.70;86.70;;;;;;12572941;28;20032;-72
2023/12/16 10:19:58;;;;;;;82.68;78.97;;;6.70;86.50;;;;;;12606592;28;20052;-72
2023/12/16 10:26:00;;;;;;;90.85;86.13;;;6.80;86.80;;;;;;12606138;28;20032;-72
2023/12/16 10:32:02;;;;;;;101.05;96.25;;;7.00;86.60;;;;;;12606098;28;20052;-73
2023/12/16 10:38:05;;;;;;;116.72;111.40;;;7.20;86.60;;;;;;12605114;28;20032;-72
2023/12/16 10:44:09;;;;;;;174.95;167.32;;;7.20;86.40;;;;;;12586991;28;20051;-72
2023/12/16 10:50:15;;;;;;;164.90;157.20;;;7.40;86.50;;;;;;12570604;28;20364;-72
2023/12/16 10:56:29;;;;;;;211.65;202.30;;;7.60;86.40;;;;;;12570680;28;20044;-72
2023/12/16 11:02:36;;;;;;;204.13;195.10;;;7.70;86.10;;;;;;12587021;28;20024;-69
2023/12/16 11:08:42;;;;;;;93.85;90.00;;;8.00;85.90;;;;;;12586360;28;20059;-72
2023/12/16 11:14:46;;;;;;;104.55;100.47;;;8.20;85.80;;;;;;12586642;28;20028;-72
2023/12/16 11:20:52;;;;;;;53.78;51.42;;;8.40;85.70;;;;;;12604278;28;20433;-72
2023/12/16 11:26:55;;;;;;;12.15;11.25;;;8.60;85.30;;;;;;12604002;28;20029;-72
2023/12/16 11:33:52;;;;;;;8.40;6.95;;;8.80;84.90;;;;;;12587000;28;20238;-72
2023/12/16 11:39:56;;;;;;;7.03;6.33;;;8.90;84.20;;;;;;12401324;28;20377;-73
2023/12/16 11:45:58;;;;;;;7.32;5.80;;;9.00;83.90;;;;;;12368998;28;20611;-73
2023/12/16 11:52:00;;;;;;;6.15;5.28;;;9.00;84.00;;;;;;12401045;28;20049;-70
2023/12/16 11:58:02;;;;;;;7.90;6.80;;;9.00;83.50;;;;;;12400774;28;20042;-72
2023/12/16 12:04:12;;;;;;;6.28;4.63;;;9.00;83.30;;;;;;12410575;28;20086;-69
2023/12/16 12:10:15;;;;;;;7.88;5.32;;;9.00;82.80;;;;;;12417252;28;20044;-72
2023/12/16 12:16:17;;;;;;;7.50;5.25;;;9.10;82.40;;;;;;12612492;28;20055;-73
2023/12/16 12:22:23;;;;;;;5.93;4.40;;;9.10;82.20;;;;;;12612071;28;20032;-72
2023/12/16 12:28:24;;;;;;;6.00;4.05;;;9.20;81.70;;;;;;12611823;28;20349;-70
2023/12/16 12:34:29;;;;;;;6.05;3.30;;;9.20;81.60;;;;;;12611661;28;20036;-73
2023/12/16 12:40:34;;;;;;;6.63;5.60;;;9.20;81.30;;;;;;12576597;28;20041;-73
2023/12/16 12:46:45;;;;;;;5.05;3.97;;;9.20;81.10;;;;;;12610948;28;20355;-73
2023/12/16 12:52:47;;;;;;;5.90;4.28;;;9.20;80.80;;;;;;12576397;28;20028;-72
2023/12/16 12:59:10;;;;;;;6.80;4.80;;;9.30;80.40;;;;;;12610535;28;20472;-70
2023/12/16 13:05:12;;;;;;;5.15;4.25;;;9.30;80.20;;;;;;12610271;28;20028;-73
2023/12/16 13:11:14;;;;;;;6.30;4.20;;;9.40;80.10;;;;;;12590730;28;20333;-72
2023/12/16 13:17:16;;;;;;;8.85;4.20;;;9.50;80.00;;;;;;12607594;28;20059;-72
2023/12/16 13:23:18;;;;;;;5.47;3.53;;;9.60;79.70;;;;;;12565768;28;20044;-72
2023/12/16 13:29:22;;;;;;;5.75;3.67;;;9.70;79.40;;;;;;12541754;28;20041;-70
2023/12/16 13:35:24;;;;;;;4.85;4.10;;;9.80;79.10;;;;;;12559317;28;20028;-70
2023/12/16 13:41:25;;;;;;;5.05;3.38;;;9.90;79.10;;;;;;12558812;28;20033;-70
2023/12/16 13:47:27;;;;;;;17.75;4.13;;;10.00;78.60;;;;;;12558457;28;20446;-70
2023/12/16 13:53:29;;;;;;;6.43;3.88;;;10.10;78.60;;;;;;12558279;28;20338;-70
2023/12/16 13:59:32;;;;;;;5.15;3.65;;;10.20;78.20;;;;;;12573355;28;20040;-70
2023/12/16 14:05:34;;;;;;;4.47;3.47;;;10.20;77.40;;;;;;12557563;28;20029;-72
2023/12/16 14:11:35;;;;;;;4.28;3.35;;;9.90;77.50;;;;;;12540303;28;20434;-73
2023/12/16 14:17:37;;;;;;;6.95;3.75;;;10.20;77.40;;;;;;12557089;28;20029;-70
2023/12/16 14:23:39;;;;;;;4.88;2.88;;;10.60;77.30;;;;;;12538657;28;20037;-70
2023/12/16 14:29:40;;;;;;;6.90;4.32;;;11.30;76.90;;;;;;12556410;28;20032;-71
2023/12/16 14:35:42;;;;;;;8.20;4.93;;;11.70;76.00;;;;;;12556105;28;20449;-71
2023/12/16 14:41:44;;;;;;;6.43;3.80;;;11.70;76.70;;;;;;12555979;28;20029;-71
2023/12/16 14:47:46;;;;;;;7.22;4.25;;;11.20;77.40;;;;;;12555707;28;20047;-70
2023/12/16 14:53:48;;;;;;;6.78;4.25;;;10.50;78.50;;;;;;12555523;28;20029;-71
2023/12/16 14:59:50;;;;;;;6.57;4.22;;;10.20;79.20;;;;;;12600274;23;20040;-71
2023/12/16 15:05:55;;;;;;;5.10;3.17;;;9.80;79.70;;;;;;12603582;28;20348;-72
2023/12/16 15:12:15;;;;;;;5.55;5.05;;;9.50;80.30;;;;;;12604499;28;20016;-72
2023/12/16 15:18:18;;;;;;;10.55;9.63;;;9.20;80.80;;;;;;12603309;28;20090;-71
2023/12/16 15:24:19;;;;;;;42.38;40.42;;;8.90;81.30;;;;;;12604069;28;20036;-71
2023/12/16 15:30:21;;;;;;;110.78;106.63;;;8.70;81.60;;;;;;12602781;28;20331;-71
2023/12/16 15:36:23;;;;;;;200.15;191.50;;;8.60;81.80;;;;;;12603106;28;20036;-71
2023/12/16 15:42:25;;;;;;;178.35;170.45;;;8.50;82.10;;;;;;12602365;28;20044;-71
2023/12/16 15:48:27;;;;;;;147.32;140.73;;;8.30;82.30;;;;;;12603559;28;20039;-72
2023/12/16 15:54:28;;;;;;;148.10;141.77;;;8.20;82.50;;;;;;12603290;28;20020;-71
2023/12/16 16:00:30;;;;;;;95.28;90.95;;;8.10;82.70;;;;;;12601703;28;20048;-72
2023/12/16 16:06:33;;;;;;;100.38;95.72;;;8.00;82.80;;;;;;12602760;28;20032;-71
2023/12/16 16:12:35;;;;;;;77.07;73.40;;;7.90;82.90;;;;;;12602918;28;20036;-72
2023/12/16 16:18:37;;;;;;;124.85;119.45;;;7.90;83.00;;;;;;12585567;28;20044;-72
2023/12/16 16:24:40;;;;;;;75.40;71.72;;;7.70;83.20;;;;;;12602735;28;20044;-72
2023/12/16 16:30:43;;;;;;;90.47;86.10;;;7.70;83.30;;;;;;12602349;28;20449;-72
2023/12/16 16:36:45;;;;;;;95.90;91.70;;;7.70;83.30;;;;;;12602490;28;20032;-72
2023/12/16 16:42:47;;;;;;;68.72;65.53;;;7.60;83.30;;;;;;12602393;28;20349;-72
2023/12/16 16:48:58;;;;;;;71.38;67.35;;;7.50;83.40;;;;;;12609181;28;20346;-72
2023/12/16 16:55:06;;;;;;;75.75;72.38;;;7.50;83.50;;;;;;12593493;28;20044;-72
2023/12/16 17:01:08;;;;;;;34.87;32.83;;;7.40;83.70;;;;;;12610615;28;20427;-72
2023/12/16 17:07:10;;;;;;;109.55;104.63;;;7.30;83.80;;;;;;12608712;28;20056;-72
2023/12/16 17:13:12;;;;;;;54.03;51.13;;;7.30;83.80;;;;;;12592348;28;20045;-72
2023/12/16 17:19:15;;;;;;;63.72;60.75;;;7.20;83.80;;;;;;12608629;28;20165;-72
2023/12/16 17:25:17;;;;;;;53.10;50.45;;;7.20;83.80;;;;;;12592075;28;20039;-72
2023/12/16 17:31:25;;;;;;;29.02;27.25;;;7.20;83.80;;;;;;12608029;28;20020;-72
2023/12/16 17:37:27;;;;;;;32.22;30.48;;;7.10;83.80;;;;;;12608921;28;20029;-72
2023/12/16 17:43:28;;;;;;;30.08;28.30;;;7.00;83.90;;;;;;12608563;28;20032;-72
2023/12/16 17:49:30;;;;;;;28.58;26.88;;;7.00;83.90;;;;;;12608952;28;20032;-72
2023/12/16 17:55:32;;;;;;;23.20;21.65;;;6.90;83.90;;;;;;12606618;28;20036;-72
2023/12/16 18:01:33;;;;;;;22.38;20.75;;;6.90;83.90;;;;;;12607124;28;20047;-72
2023/12/16 18:07:35;;;;;;;23.15;21.23;;;6.80;83.90;;;;;;12589960;28;20038;-72
2023/12/16 18:13:36;;;;;;;35.30;32.92;;;6.80;83.90;;;;;;12607028;28;20473;-72
2023/12/16 18:19:38;;;;;;;20.77;19.17;;;6.70;84.00;;;;;;12606684;28;20051;-72
2023/12/16 18:25:40;;;;;;;27.10;25.17;;;6.70;84.00;;;;;;12606434;28;20433;-72
2023/12/16 18:31:41;;;;;;;19.02;17.27;;;6.60;84.00;;;;;;12605243;28;20043;-72
2023/12/16 18:37:44;;;;;;;24.02;22.30;;;6.50;84.10;;;;;;12604104;28;20464;-72
2023/12/16 18:43:49;;;;;;;22.33;20.63;;;6.50;84.10;;;;;;12605682;28;20330;-72
2023/12/16 18:49:52;;;;;;;36.13;33.97;;;6.50;84.20;;;;;;12604120;28;20048;-72
2023/12/16 18:56:00;;;;;;;33.53;31.42;;;6.50;84.20;;;;;;12603892;28;20559;-72
2023/12/16 19:02:03;;;;;;;28.33;26.30;;;6.40;84.30;;;;;;12587300;28;20041;-72
2023/12/16 19:08:04;;;;;;;22.85;20.77;;;6.40;84.30;;;;;;12604558;28;20061;-72
2023/12/16 19:14:07;;;;;;;35.13;32.85;;;6.30;84.20;;;;;;12587157;28;20044;-71
2023/12/16 19:20:11;;;;;;;16.70;13.45;;;6.30;84.10;;;;;;12603229;28;20044;-71
2023/12/16 19:26:13;;;;;;;19.98;18.23;;;6.30;84.10;;;;;;12604007;28;20241;-71
2023/12/16 19:32:14;;;;;;;34.00;31.70;;;6.30;84.10;;;;;;12604019;28;20043;-71
2023/12/16 19:38:16;;;;;;;27.80;25.48;;;6.20;84.10;;;;;;12603905;28;20326;-71
2023/12/16 19:44:20;;;;;;;23.45;21.55;;;6.20;84.00;;;;;;12602559;28;20028;-71
2023/12/16 19:50:21;;;;;;;34.42;32.00;;;6.20;84.10;;;;;;12602363;28;20039;-71
2023/12/16 19:56:24;;;;;;;26.75;24.70;;;6.20;84.10;;;;;;12603417;28;20033;-71
2023/12/16 20:02:26;;;;;;;27.63;24.98;;;6.10;84.20;;;;;;12603305;28;20032;-71
2023/12/16 20:08:28;;;;;;;26.65;24.27;;;6.20;84.20;;;;;;12603090;28;20032;-71
2023/12/16 20:14:32;;;;;;;42.20;39.30;;;6.20;84.20;;;;;;12603015;28;20046;-71
2023/12/16 20:20:34;;;;;;;27.45;25.10;;;6.10;84.30;;;;;;12605338;28;20036;-71
2023/12/16 20:26:36;;;;;;;29.23;26.92;;;6.00;84.40;;;;;;12612863;28;20028;-71
2023/12/16 20:32:38;;;;;;;37.15;34.78;;;5.80;84.50;;;;;;12611896;28;20436;-72
2023/12/16 20:44:59;;;;;;;28.42;26.52;;;5.80;84.70;;;;;;12611421;28;20043;-72
2023/12/16 20:51:01;;;;;;;31.08;28.67;;;5.70;84.80;;;;;;12611008;28;20460;-72
2023/12/16 20:57:03;;;;;;;41.53;38.50;;;5.80;84.80;;;;;;12609561;28;20051;-73
2023/12/16 21:03:06;;;;;;;32.25;29.83;;;5.80;84.80;;;;;;12610647;28;20033;-72
2023/12/16 21:09:08;;;;;;;39.50;36.58;;;5.80;84.90;;;;;;12610295;28;20040;-74
2023/12/16 21:15:10;;;;;;;35.85;33.25;;;5.80;85.10;;;;;;12610097;28;20433;-72
2023/12/16 21:21:11;;;;;;;31.30;28.98;;;5.80;85.20;;;;;;12608559;28;20029;-73
2023/12/16 21:27:13;;;;;;;31.33;28.33;;;5.80;85.30;;;;;;12609446;28;20039;-72
2023/12/16 21:33:22;;;;;;;33.75;30.90;;;5.70;85.40;;;;;;12606970;28;20029;-72
2023/12/16 21:39:27;;;;;;;31.05;28.08;;;5.70;85.30;;;;;;12607845;28;20385;-72
2023/12/16 21:45:28;;;;;;;37.22;34.30;;;5.70;85.20;;;;;;12608583;28;20040;-72
2023/12/16 21:51:32;;;;;;;37.20;34.35;;;5.60;85.20;;;;;;12608362;28;20039;-72
2023/12/16 21:57:33;;;;;;;25.67;23.23;;;5.50;85.20;;;;;;12607018;28;20040;-72
2023/12/16 22:03:35;;;;;;;48.88;45.90;;;5.50;85.10;;;;;;12606573;28;20122;-72
2023/12/16 22:09:37;;;;;;;34.50;32.00;;;5.50;85.00;;;;;;12589593;28;20451;-73
2023/12/16 22:15:39;;;;;;;44.10;40.95;;;5.50;85.00;;;;;;12605896;28;20449;-73
2023/12/16 22:21:40;;;;;;;27.15;24.33;;;5.50;84.80;;;;;;12606859;28;20025;-73
2023/12/16 22:27:43;;;;;;;19.98;17.92;;;5.50;84.80;;;;;;12605346;28;20048;-73
2023/12/16 22:34:04;;;;;;;26.35;21.85;;;5.50;84.90;;;;;;12605088;28;20024;-73
2023/12/16 22:40:12;;;;;;;43.40;39.67;;;5.60;84.90;;;;;;12606025;28;20337;-73
2023/12/16 22:46:18;;;;;;;23.55;21.13;;;5.50;85.00;;;;;;12605363;28;20044;-73
2023/12/16 22:52:26;;;;;;;25.08;22.23;;;5.40;85.00;;;;;;12600568;28;20051;-73
2023/12/16 22:58:28;;;;;;;26.17;23.88;;;5.40;85.20;;;;;;12545393;22;20041;-73
2023/12/16 23:04:30;;;;;;;36.03;33.10;;;5.30;85.10;;;;;;12505837;28;20030;-73
2023/12/16 23:10:32;;;;;;;32.95;30.08;;;5.10;84.90;;;;;;12504357;28;20342;-73
2023/12/16 23:16:34;;;;;;;34.78;32.10;;;5.00;85.10;;;;;;12505275;28;20037;-73
2023/12/16 23:22:36;;;;;;;37.30;34.47;;;4.90;85.20;;;;;;12504053;28;20041;-73
2023/12/16 23:28:51;;;;;;;32.80;30.23;;;5.10;85.40;;;;;;12487421;28;20038;-73
2023/12/16 23:34:52;;;;;;;25.73;23.02;;;5.10;85.20;;;;;;12504761;28;20342;-73
2023/12/16 23:40:55;;;;;;;25.35;23.20;;;5.10;85.10;;;;;;12503481;28;20152;-73
2023/12/16 23:46:59;;;;;;;25.30;22.80;;;5.10;85.20;;;;;;12503295;28;20092;-73
2023/12/16 23:53:01;;;;;;;34.38;31.85;;;5.00;85.40;;;;;;12505229;28;20044;-73
2023/12/16 23:59:05;;;;;;;32.47;29.67;;;5.00;85.30;;;;;;12512641;28;20033;-73
